.
Local / Fort Wayne - NE Ind.

U N D E R   C O N S T R U C T I O N

Local Weather
Fort Wayne – NE Indiana

Northern Indiana (IWX) Radar

Latest IWX NEXRAD
Base Reflectivity



Latest IWX NEXRAD
Base Velocity

Indiana-Ohio Visible Satellite

For infrared and water vapor imagery, see Great Lakes - Midwest.

Current Conditions

Recent report from the Fort Wayne International Airport

Dec 11, 2017 - 08:54 PM EST / 2017.12.12 0154 UTC


The skies are overcast. The temperature is 33.1 F (0.6 C) and the dew point is 28.0 F (-2.2 C), giving a relative humidity of 81%. The barometric pressure is 29.66 in. Hg (1004 hPa). The wind is from the NE (050 degrees) at 3 MPH (3 KT), and the visibility is 10 mile(s).

KFWA 120154Z 05003KT 10SM BKN050 OVC065 01/M02 A2966 RMK AO2 SLP051 T00061022

Local Weather — Contents

Local Weather — Links

CoCoRaHS
IN-AL-39
A2 Web Hosting
Creative Commons License
GoDaddy
Look for:

loaded 2017-12-11 21:36:58 • last modified 2017-02-11 13:27:36
Privacy PolicyDisclaimer
• wx.awcolley.com is powered by PmWiki v.2002016 •
• all content (unless otherwise noted) © 2017 A W Colley